sensor_id;sensor_type;location;lat;lon;timestamp;temperature;humidity
39677;DHT22;27789;50.840;4.386;2023-11-22T00:02:16;7.70;99.90
39677;DHT22;27789;50.840;4.386;2023-11-22T00:04:41;7.70;99.90
39677;DHT22;27789;50.840;4.386;2023-11-22T00:07:07;7.80;99.90
39677;DHT22;27789;50.840;4.386;2023-11-22T00:09:33;7.70;99.90
39677;DHT22;27789;50.840;4.386;2023-11-22T00:11:58;7.70;99.90
39677;DHT22;27789;50.840;4.386;2023-11-22T00:14:25;7.70;99.90
39677;DHT22;27789;50.840;4.386;2023-11-22T00:16:51;7.60;99.90
39677;DHT22;27789;50.840;4.386;2023-11-22T00:19:17;7.60;99.90
39677;DHT22;27789;50.840;4.386;2023-11-22T00:21:43;7.60;99.90
39677;DHT22;27789;50.840;4.386;2023-11-22T00:24:09;7.60;99.90
39677;DHT22;27789;50.840;4.386;2023-11-22T00:26:35;7.60;99.90
39677;DHT22;27789;50.840;4.386;2023-11-22T00:29:00;7.70;99.90
39677;DHT22;27789;50.840;4.386;2023-11-22T00:31:26;7.70;99.90
39677;DHT22;27789;50.840;4.386;2023-11-22T00:33:51;7.70;99.90
39677;DHT22;27789;50.840;4.386;2023-11-22T00:36:17;7.90;99.90
39677;DHT22;27789;50.840;4.386;2023-11-22T00:38:42;7.70;99.90
39677;DHT22;27789;50.840;4.386;2023-11-22T00:41:09;7.60;99.90
39677;DHT22;27789;50.840;4.386;2023-11-22T00:43:34;7.70;99.90
39677;DHT22;27789;50.840;4.386;2023-11-22T00:46:00;7.70;99.90
39677;DHT22;27789;50.840;4.386;2023-11-22T00:48:26;7.70;99.90
39677;DHT22;27789;50.840;4.386;2023-11-22T00:50:52;7.70;99.90
39677;DHT22;27789;50.840;4.386;2023-11-22T00:53:17;7.70;99.90
39677;DHT22;27789;50.840;4.386;2023-11-22T00:55:43;7.70;99.90
39677;DHT22;27789;50.840;4.386;2023-11-22T00:58:09;7.70;99.90
39677;DHT22;27789;50.840;4.386;2023-11-22T01:00:34;7.70;99.90
39677;DHT22;27789;50.840;4.386;2023-11-22T01:03:00;7.60;99.90
39677;DHT22;27789;50.840;4.386;2023-11-22T01:05:25;7.60;99.90
39677;DHT22;27789;50.840;4.386;2023-11-22T01:07:51;7.60;99.90
39677;DHT22;27789;50.840;4.386;2023-11-22T01:10:16;7.50;99.90
39677;DHT22;27789;50.840;4.386;2023-11-22T01:12:42;7.40;99.90
39677;DHT22;27789;50.840;4.386;2023-11-22T01:15:08;7.40;99.90
39677;DHT22;27789;50.840;4.386;2023-11-22T01:17:34;7.40;99.90
39677;DHT22;27789;50.840;4.386;2023-11-22T01:19:59;7.40;99.90
39677;DHT22;27789;50.840;4.386;2023-11-22T01:22:25;7.40;99.90
39677;DHT22;27789;50.840;4.386;2023-11-22T01:24:50;7.40;99.90
39677;DHT22;27789;50.840;4.386;2023-11-22T01:27:16;7.30;99.90
39677;DHT22;27789;50.840;4.386;2023-11-22T01:29:42;7.50;99.90
39677;DHT22;27789;50.840;4.386;2023-11-22T01:32:07;7.30;99.90
39677;DHT22;27789;50.840;4.386;2023-11-22T01:34:34;7.30;99.90
39677;DHT22;27789;50.840;4.386;2023-11-22T01:36:59;7.30;99.90
39677;DHT22;27789;50.840;4.386;2023-11-22T01:39:25;7.30;99.90
39677;DHT22;27789;50.840;4.386;2023-11-22T01:41:51;7.30;99.90
39677;DHT22;27789;50.840;4.386;2023-11-22T01:44:17;7.30;99.90
39677;DHT22;27789;50.840;4.386;2023-11-22T01:46:43;7.40;99.90
39677;DHT22;27789;50.840;4.386;2023-11-22T01:49:10;7.60;99.90
39677;DHT22;27789;50.840;4.386;2023-11-22T01:51:36;7.40;99.90
39677;DHT22;27789;50.840;4.386;2023-11-22T01:54:02;7.40;99.90
39677;DHT22;27789;50.840;4.386;2023-11-22T01:56:28;7.40;99.90
39677;DHT22;27789;50.840;4.386;2023-11-22T01:58:55;7.40;99.90
39677;DHT22;27789;50.840;4.386;2023-11-22T02:01:21;7.50;99.90
39677;DHT22;27789;50.840;4.386;2023-11-22T02:03:47;7.50;99.90
39677;DHT22;27789;50.840;4.386;2023-11-22T02:06:14;7.50;99.90
39677;DHT22;27789;50.840;4.386;2023-11-22T02:08:41;7.60;99.90
39677;DHT22;27789;50.840;4.386;2023-11-22T02:11:07;7.50;99.90
39677;DHT22;27789;50.840;4.386;2023-11-22T02:13:32;7.50;99.90
39677;DHT22;27789;50.840;4.386;2023-11-22T02:15:58;7.50;99.90
39677;DHT22;27789;50.840;4.386;2023-11-22T02:18:26;7.50;99.90
39677;DHT22;27789;50.840;4.386;2023-11-22T02:20:52;7.50;99.90
39677;DHT22;27789;50.840;4.386;2023-11-22T02:23:17;7.40;99.90
39677;DHT22;27789;50.840;4.386;2023-11-22T02:25:43;7.50;99.90
39677;DHT22;27789;50.840;4.386;2023-11-22T02:28:09;7.40;99.90
39677;DHT22;27789;50.840;4.386;2023-11-22T02:30:35;7.40;99.90
39677;DHT22;27789;50.840;4.386;2023-11-22T02:33:00;7.40;99.90
39677;DHT22;27789;50.840;4.386;2023-11-22T02:35:26;7.40;99.90
39677;DHT22;27789;50.840;4.386;2023-11-22T02:37:52;7.40;99.90
39677;DHT22;27789;50.840;4.386;2023-11-22T02:40:18;7.40;99.90
39677;DHT22;27789;50.840;4.386;2023-11-22T02:42:48;7.40;99.90
39677;DHT22;27789;50.840;4.386;2023-11-22T02:45:14;7.40;99.90
39677;DHT22;27789;50.840;4.386;2023-11-22T02:47:39;7.40;99.90
39677;DHT22;27789;50.840;4.386;2023-11-22T02:50:05;7.40;99.90
39677;DHT22;27789;50.840;4.386;2023-11-22T02:52:31;7.40;99.90
39677;DHT22;27789;50.840;4.386;2023-11-22T02:54:57;7.40;99.90
39677;DHT22;27789;50.840;4.386;2023-11-22T02:57:23;7.40;99.90
39677;DHT22;27789;50.840;4.386;2023-11-22T02:59:49;7.40;99.90
39677;DHT22;27789;50.840;4.386;2023-11-22T03:02:14;7.60;99.90
39677;DHT22;27789;50.840;4.386;2023-11-22T03:04:42;7.50;99.90
39677;DHT22;27789;50.840;4.386;2023-11-22T03:07:08;7.50;99.90
39677;DHT22;27789;50.840;4.386;2023-11-22T03:09:33;7.50;99.90
39677;DHT22;27789;50.840;4.386;2023-11-22T03:11:59;7.50;99.90
39677;DHT22;27789;50.840;4.386;2023-11-22T03:14:25;7.50;99.90
39677;DHT22;27789;50.840;4.386;2023-11-22T03:16:51;7.40;99.90
39677;DHT22;27789;50.840;4.386;2023-11-22T03:19:17;7.40;99.90
39677;DHT22;27789;50.840;4.386;2023-11-22T03:21:44;7.30;99.90
39677;DHT22;27789;50.840;4.386;2023-11-22T03:24:11;7.30;99.90
39677;DHT22;27789;50.840;4.386;2023-11-22T03:26:36;7.30;99.90
39677;DHT22;27789;50.840;4.386;2023-11-22T03:29:02;7.30;99.90
39677;DHT22;27789;50.840;4.386;2023-11-22T03:31:27;7.30;99.90
39677;DHT22;27789;50.840;4.386;2023-11-22T03:33:56;7.30;99.90
39677;DHT22;27789;50.840;4.386;2023-11-22T03:36:22;7.30;99.90
39677;DHT22;27789;50.840;4.386;2023-11-22T03:38:48;7.20;99.90
39677;DHT22;27789;50.840;4.386;2023-11-22T03:41:13;7.20;99.90
39677;DHT22;27789;50.840;4.386;2023-11-22T03:43:39;7.20;99.90
39677;DHT22;27789;50.840;4.386;2023-11-22T03:46:04;7.20;99.90
39677;DHT22;27789;50.840;4.386;2023-11-22T03:48:30;7.20;99.90
39677;DHT22;27789;50.840;4.386;2023-11-22T03:50:56;7.10;99.90
39677;DHT22;27789;50.840;4.386;2023-11-22T03:53:21;7.10;99.90
39677;DHT22;27789;50.840;4.386;2023-11-22T03:55:48;7.20;99.90
39677;DHT22;27789;50.840;4.386;2023-11-22T03:58:15;7.10;99.90
39677;DHT22;27789;50.840;4.386;2023-11-22T04:00:40;7.10;99.90
39677;DHT22;27789;50.840;4.386;2023-11-22T04:03:06;7.20;99.90
39677;DHT22;27789;50.840;4.386;2023-11-22T04:05:31;7.10;99.90
39677;DHT22;27789;50.840;4.386;2023-11-22T04:07:57;7.20;99.90
39677;DHT22;27789;50.840;4.386;2023-11-22T04:10:23;7.10;99.90
39677;DHT22;27789;50.840;4.386;2023-11-22T04:12:49;7.10;99.90
39677;DHT22;27789;50.840;4.386;2023-11-22T04:15:14;7.10;99.90
39677;DHT22;27789;50.840;4.386;2023-11-22T04:17:40;7.10;99.90
39677;DHT22;27789;50.840;4.386;2023-11-22T04:20:06;7.10;99.90
39677;DHT22;27789;50.840;4.386;2023-11-22T04:22:36;7.10;99.90
39677;DHT22;27789;50.840;4.386;2023-11-22T04:25:02;7.10;99.90
39677;DHT22;27789;50.840;4.386;2023-11-22T04:27:27;7.00;99.90
39677;DHT22;27789;50.840;4.386;2023-11-22T04:29:53;7.00;99.90
39677;DHT22;27789;50.840;4.386;2023-11-22T04:32:18;7.00;99.90
39677;DHT22;27789;50.840;4.386;2023-11-22T04:34:44;7.00;99.90
39677;DHT22;27789;50.840;4.386;2023-11-22T04:37:09;7.10;99.90
39677;DHT22;27789;50.840;4.386;2023-11-22T04:39:35;7.10;99.90
39677;DHT22;27789;50.840;4.386;2023-11-22T04:42:00;7.00;99.90
39677;DHT22;27789;50.840;4.386;2023-11-22T04:44:26;6.90;99.90
39677;DHT22;27789;50.840;4.386;2023-11-22T04:46:51;6.90;99.90
39677;DHT22;27789;50.840;4.386;2023-11-22T04:49:17;7.00;99.90
39677;DHT22;27789;50.840;4.386;2023-11-22T04:51:42;7.00;99.90
39677;DHT22;27789;50.840;4.386;2023-11-22T04:54:09;6.90;99.90
39677;DHT22;27789;50.840;4.386;2023-11-22T04:56:35;6.90;99.90
39677;DHT22;27789;50.840;4.386;2023-11-22T04:59:00;6.90;99.90
39677;DHT22;27789;50.840;4.386;2023-11-22T05:01:31;6.90;99.90
39677;DHT22;27789;50.840;4.386;2023-11-22T05:03:56;6.80;99.90
39677;DHT22;27789;50.840;4.386;2023-11-22T05:06:22;6.80;99.90
39677;DHT22;27789;50.840;4.386;2023-11-22T05:08:48;6.80;99.90
39677;DHT22;27789;50.840;4.386;2023-11-22T05:11:13;6.80;99.90
39677;DHT22;27789;50.840;4.386;2023-11-22T05:13:40;6.80;99.90
39677;DHT22;27789;50.840;4.386;2023-11-22T05:16:08;6.70;99.90
39677;DHT22;27789;50.840;4.386;2023-11-22T05:18:33;6.80;99.90
39677;DHT22;27789;50.840;4.386;2023-11-22T05:20:59;6.80;99.90
39677;DHT22;27789;50.840;4.386;2023-11-22T05:23:24;6.80;99.90
39677;DHT22;27789;50.840;4.386;2023-11-22T05:25:50;6.80;99.90
39677;DHT22;27789;50.840;4.386;2023-11-22T05:28:15;6.80;99.90
39677;DHT22;27789;50.840;4.386;2023-11-22T05:30:41;6.80;99.90
39677;DHT22;27789;50.840;4.386;2023-11-22T05:33:06;6.80;99.90
39677;DHT22;27789;50.840;4.386;2023-11-22T05:35:32;6.80;99.90
39677;DHT22;27789;50.840;4.386;2023-11-22T05:37:58;6.90;99.90
39677;DHT22;27789;50.840;4.386;2023-11-22T05:40:24;6.90;99.90
39677;DHT22;27789;50.840;4.386;2023-11-22T05:42:49;7.00;99.90
39677;DHT22;27789;50.840;4.386;2023-11-22T05:45:15;7.00;99.90
39677;DHT22;27789;50.840;4.386;2023-11-22T05:47:40;6.80;99.90
39677;DHT22;27789;50.840;4.386;2023-11-22T05:50:07;6.90;99.90
39677;DHT22;27789;50.840;4.386;2023-11-22T05:52:32;6.90;99.90
39677;DHT22;27789;50.840;4.386;2023-11-22T05:54:58;6.90;99.90
39677;DHT22;27789;50.840;4.386;2023-11-22T05:57:23;6.90;99.90
39677;DHT22;27789;50.840;4.386;2023-11-22T05:59:49;6.90;99.90
39677;DHT22;27789;50.840;4.386;2023-11-22T06:02:14;6.90;99.90
39677;DHT22;27789;50.840;4.386;2023-11-22T06:04:40;6.80;99.90
39677;DHT22;27789;50.840;4.386;2023-11-22T06:07:05;6.90;99.90
39677;DHT22;27789;50.840;4.386;2023-11-22T06:09:31;7.00;99.90
39677;DHT22;27789;50.840;4.386;2023-11-22T06:11:56;7.10;99.90
39677;DHT22;27789;50.840;4.386;2023-11-22T06:14:22;7.10;99.90
39677;DHT22;27789;50.840;4.386;2023-11-22T06:16:47;6.90;99.90
39677;DHT22;27789;50.840;4.386;2023-11-22T06:19:13;6.90;99.90
39677;DHT22;27789;50.840;4.386;2023-11-22T06:21:38;6.80;99.90
39677;DHT22;27789;50.840;4.386;2023-11-22T06:24:04;6.90;99.90
39677;DHT22;27789;50.840;4.386;2023-11-22T06:26:34;6.90;99.90
39677;DHT22;27789;50.840;4.386;2023-11-22T06:29:00;6.90;99.90
39677;DHT22;27789;50.840;4.386;2023-11-22T06:31:25;6.90;99.90
39677;DHT22;27789;50.840;4.386;2023-11-22T06:33:51;6.90;99.90
39677;DHT22;27789;50.840;4.386;2023-11-22T06:36:17;6.90;99.90
39677;DHT22;27789;50.840;4.386;2023-11-22T06:38:43;6.90;99.90
39677;DHT22;27789;50.840;4.386;2023-11-22T06:41:10;6.90;99.90
39677;DHT22;27789;50.840;4.386;2023-11-22T06:43:36;6.90;99.90
39677;DHT22;27789;50.840;4.386;2023-11-22T06:46:02;6.90;99.90
39677;DHT22;27789;50.840;4.386;2023-11-22T06:48:32;6.90;99.90
39677;DHT22;27789;50.840;4.386;2023-11-22T06:50:58;6.90;99.90
39677;DHT22;27789;50.840;4.386;2023-11-22T06:53:23;7.00;99.90
39677;DHT22;27789;50.840;4.386;2023-11-22T06:55:51;7.00;99.90
39677;DHT22;27789;50.840;4.386;2023-11-22T06:58:16;7.00;99.90
39677;DHT22;27789;50.840;4.386;2023-11-22T07:00:43;6.90;99.90
39677;DHT22;27789;50.840;4.386;2023-11-22T07:03:09;6.90;99.90
39677;DHT22;27789;50.840;4.386;2023-11-22T07:05:36;6.90;99.90
39677;DHT22;27789;50.840;4.386;2023-11-22T07:08:02;7.00;99.90
39677;DHT22;27789;50.840;4.386;2023-11-22T07:10:28;7.00;99.90
39677;DHT22;27789;50.840;4.386;2023-11-22T07:12:54;7.00;99.90
39677;DHT22;27789;50.840;4.386;2023-11-22T07:15:19;7.10;99.90
39677;DHT22;27789;50.840;4.386;2023-11-22T07:17:45;7.10;99.90
39677;DHT22;27789;50.840;4.386;2023-11-22T07:20:10;7.10;99.90
39677;DHT22;27789;50.840;4.386;2023-11-22T07:22:42;7.10;99.90
39677;DHT22;27789;50.840;4.386;2023-11-22T07:25:08;7.10;99.90
39677;DHT22;27789;50.840;4.386;2023-11-22T07:27:46;7.10;99.90
39677;DHT22;27789;50.840;4.386;2023-11-22T07:30:15;7.00;99.90
39677;DHT22;27789;50.840;4.386;2023-11-22T07:32:41;7.10;99.90
39677;DHT22;27789;50.840;4.386;2023-11-22T07:35:07;7.20;99.90
39677;DHT22;27789;50.840;4.386;2023-11-22T07:37:34;7.20;99.90
39677;DHT22;27789;50.840;4.386;2023-11-22T07:40:01;7.20;99.90
39677;DHT22;27789;50.840;4.386;2023-11-22T07:42:28;7.20;99.90
39677;DHT22;27789;50.840;4.386;2023-11-22T07:44:54;7.20;99.90
39677;DHT22;27789;50.840;4.386;2023-11-22T07:47:21;7.30;99.90
39677;DHT22;27789;50.840;4.386;2023-11-22T07:49:48;7.20;99.90
39677;DHT22;27789;50.840;4.386;2023-11-22T07:52:14;7.20;99.90
39677;DHT22;27789;50.840;4.386;2023-11-22T07:54:39;7.40;99.90
39677;DHT22;27789;50.840;4.386;2023-11-22T07:57:05;7.70;99.90
39677;DHT22;27789;50.840;4.386;2023-11-22T07:59:32;7.30;99.90
39677;DHT22;27789;50.840;4.386;2023-11-22T08:01:58;7.30;99.90
39677;DHT22;27789;50.840;4.386;2023-11-22T08:04:23;7.40;99.90
39677;DHT22;27789;50.840;4.386;2023-11-22T08:06:50;7.50;99.90
39677;DHT22;27789;50.840;4.386;2023-11-22T08:09:16;7.40;99.90
39677;DHT22;27789;50.840;4.386;2023-11-22T08:11:42;7.40;99.90
39677;DHT22;27789;50.840;4.386;2023-11-22T08:14:08;7.40;99.90
39677;DHT22;27789;50.840;4.386;2023-11-22T08:16:34;7.50;99.90
39677;DHT22;27789;50.840;4.386;2023-11-22T08:19:03;7.50;99.90
39677;DHT22;27789;50.840;4.386;2023-11-22T08:21:30;7.50;99.90
39677;DHT22;27789;50.840;4.386;2023-11-22T08:23:56;7.50;99.90
39677;DHT22;27789;50.840;4.386;2023-11-22T08:26:21;7.50;99.90
39677;DHT22;27789;50.840;4.386;2023-11-22T08:28:47;7.50;99.90
39677;DHT22;27789;50.840;4.386;2023-11-22T08:31:12;7.50;99.90
39677;DHT22;27789;50.840;4.386;2023-11-22T08:33:39;7.40;99.90
39677;DHT22;27789;50.840;4.386;2023-11-22T08:36:05;7.40;99.90
39677;DHT22;27789;50.840;4.386;2023-11-22T08:38:30;7.50;99.90
39677;DHT22;27789;50.840;4.386;2023-11-22T08:41:06;7.60;99.90
39677;DHT22;27789;50.840;4.386;2023-11-22T08:43:31;7.70;99.90
39677;DHT22;27789;50.840;4.386;2023-11-22T08:45:57;7.80;99.90
39677;DHT22;27789;50.840;4.386;2023-11-22T08:48:23;7.80;99.90
39677;DHT22;27789;50.840;4.386;2023-11-22T08:50:49;8.00;99.90
39677;DHT22;27789;50.840;4.386;2023-11-22T08:53:14;8.00;99.90
39677;DHT22;27789;50.840;4.386;2023-11-22T08:55:40;8.10;99.90
39677;DHT22;27789;50.840;4.386;2023-11-22T08:58:07;8.10;99.90
39677;DHT22;27789;50.840;4.386;2023-11-22T09:00:33;8.20;99.90
39677;DHT22;27789;50.840;4.386;2023-11-22T09:02:59;8.30;99.90
39677;DHT22;27789;50.840;4.386;2023-11-22T09:05:24;8.30;99.90
39677;DHT22;27789;50.840;4.386;2023-11-22T09:07:50;8.30;99.90
39677;DHT22;27789;50.840;4.386;2023-11-22T09:10:16;8.30;99.90
39677;DHT22;27789;50.840;4.386;2023-11-22T09:12:43;8.30;99.90
39677;DHT22;27789;50.840;4.386;2023-11-22T09:15:09;8.30;99.90
39677;DHT22;27789;50.840;4.386;2023-11-22T09:17:36;8.70;99.90
39677;DHT22;27789;50.840;4.386;2023-11-22T09:20:04;8.50;99.90
39677;DHT22;27789;50.840;4.386;2023-11-22T09:22:31;8.50;99.90
39677;DHT22;27789;50.840;4.386;2023-11-22T09:24:57;8.50;99.90
39677;DHT22;27789;50.840;4.386;2023-11-22T09:27:23;8.50;99.90
39677;DHT22;27789;50.840;4.386;2023-11-22T09:29:48;8.60;99.90
39677;DHT22;27789;50.840;4.386;2023-11-22T09:32:15;8.60;99.90
39677;DHT22;27789;50.840;4.386;2023-11-22T09:34:40;8.60;99.90
39677;DHT22;27789;50.840;4.386;2023-11-22T09:37:06;8.70;99.90
39677;DHT22;27789;50.840;4.386;2023-11-22T09:39:33;8.70;99.90
39677;DHT22;27789;50.840;4.386;2023-11-22T09:42:00;8.80;99.90
39677;DHT22;27789;50.840;4.386;2023-11-22T09:44:26;8.80;99.90
39677;DHT22;27789;50.840;4.386;2023-11-22T09:46:51;8.80;99.90
39677;DHT22;27789;50.840;4.386;2023-11-22T09:49:19;8.80;99.90
39677;DHT22;27789;50.840;4.386;2023-11-22T09:51:47;9.00;99.90
39677;DHT22;27789;50.840;4.386;2023-11-22T09:54:13;9.10;99.90
39677;DHT22;27789;50.840;4.386;2023-11-22T09:56:40;9.10;99.90
39677;DHT22;27789;50.840;4.386;2023-11-22T09:59:06;9.60;99.90
39677;DHT22;27789;50.840;4.386;2023-11-22T10:01:32;9.20;99.90
39677;DHT22;27789;50.840;4.386;2023-11-22T10:04:01;9.20;99.90
39677;DHT22;27789;50.840;4.386;2023-11-22T10:06:27;9.20;99.90
39677;DHT22;27789;50.840;4.386;2023-11-22T10:08:58;9.30;99.90
39677;DHT22;27789;50.840;4.386;2023-11-22T10:11:24;9.40;99.90
39677;DHT22;27789;50.840;4.386;2023-11-22T10:13:50;9.40;99.90
39677;DHT22;27789;50.840;4.386;2023-11-22T10:16:16;9.50;99.90
39677;DHT22;27789;50.840;4.386;2023-11-22T10:21:21;9.90;99.90
39677;DHT22;27789;50.840;4.386;2023-11-22T10:23:46;10.10;99.90
39677;DHT22;27789;50.840;4.386;2023-11-22T10:26:17;10.40;99.90
39677;DHT22;27789;50.840;4.386;2023-11-22T10:28:42;10.40;99.90
39677;DHT22;27789;50.840;4.386;2023-11-22T10:31:08;10.30;99.90
39677;DHT22;27789;50.840;4.386;2023-11-22T10:33:38;10.30;99.90
39677;DHT22;27789;50.840;4.386;2023-11-22T10:36:04;11.00;99.90
39677;DHT22;27789;50.840;4.386;2023-11-22T10:38:29;12.10;99.90
39677;DHT22;27789;50.840;4.386;2023-11-22T10:40:56;13.00;99.90
39677;DHT22;27789;50.840;4.386;2023-11-22T10:43:23;12.60;99.90
39677;DHT22;27789;50.840;4.386;2023-11-22T10:45:51;12.80;99.90
39677;DHT22;27789;50.840;4.386;2023-11-22T10:48:18;13.60;99.90
39677;DHT22;27789;50.840;4.386;2023-11-22T10:50:46;14.60;99.90
39677;DHT22;27789;50.840;4.386;2023-11-22T10:53:13;15.30;99.90
39677;DHT22;27789;50.840;4.386;2023-11-22T10:55:47;15.60;99.90
39677;DHT22;27789;50.840;4.386;2023-11-22T10:58:16;15.80;99.90
39677;DHT22;27789;50.840;4.386;2023-11-22T11:00:43;16.40;99.90
39677;DHT22;27789;50.840;4.386;2023-11-22T11:03:20;16.20;99.90
39677;DHT22;27789;50.840;4.386;2023-11-22T11:05:54;15.40;99.90
39677;DHT22;27789;50.840;4.386;2023-11-22T11:08:23;15.70;99.90
39677;DHT22;27789;50.840;4.386;2023-11-22T11:10:49;15.40;99.90
39677;DHT22;27789;50.840;4.386;2023-11-22T11:13:15;14.60;99.90
39677;DHT22;27789;50.840;4.386;2023-11-22T11:15:41;14.00;99.90
39677;DHT22;27789;50.840;4.386;2023-11-22T11:18:09;13.50;99.90
39677;DHT22;27789;50.840;4.386;2023-11-22T11:20:48;13.40;99.90
39677;DHT22;27789;50.840;4.386;2023-11-22T11:23:15;13.80;99.90
39677;DHT22;27789;50.840;4.386;2023-11-22T11:25:41;14.50;99.90
39677;DHT22;27789;50.840;4.386;2023-11-22T11:28:10;15.30;99.90
39677;DHT22;27789;50.840;4.386;2023-11-22T11:30:43;15.80;99.90
39677;DHT22;27789;50.840;4.386;2023-11-22T11:33:12;15.20;99.90
39677;DHT22;27789;50.840;4.386;2023-11-22T11:35:47;14.10;99.90
39677;DHT22;27789;50.840;4.386;2023-11-22T11:38:13;13.40;99.90
39677;DHT22;27789;50.840;4.386;2023-11-22T11:40:40;13.00;99.90
39677;DHT22;27789;50.840;4.386;2023-11-22T11:43:05;12.90;99.90
39677;DHT22;27789;50.840;4.386;2023-11-22T11:45:35;13.20;99.90
39677;DHT22;27789;50.840;4.386;2023-11-22T11:48:00;13.50;99.90
39677;DHT22;27789;50.840;4.386;2023-11-22T11:50:26;13.80;99.90
39677;DHT22;27789;50.840;4.386;2023-11-22T11:52:51;15.00;99.90
39677;DHT22;27789;50.840;4.386;2023-11-22T11:55:17;15.60;99.90
39677;DHT22;27789;50.840;4.386;2023-11-22T11:57:43;15.40;99.90
39677;DHT22;27789;50.840;4.386;2023-11-22T12:00:11;14.80;99.90
39677;DHT22;27789;50.840;4.386;2023-11-22T12:02:39;15.10;99.90
39677;DHT22;27789;50.840;4.386;2023-11-22T12:05:05;15.30;99.90
39677;DHT22;27789;50.840;4.386;2023-11-22T12:07:34;15.50;99.90
39677;DHT22;27789;50.840;4.386;2023-11-22T12:09:59;15.80;99.90
39677;DHT22;27789;50.840;4.386;2023-11-22T12:12:25;15.90;99.80
39677;DHT22;27789;50.840;4.386;2023-11-22T12:14:51;16.00;99.90
39677;DHT22;27789;50.840;4.386;2023-11-22T12:17:16;15.80;99.90
39677;DHT22;27789;50.840;4.386;2023-11-22T12:19:42;15.50;99.90
39677;DHT22;27789;50.840;4.386;2023-11-22T12:22:07;15.00;99.90
39677;DHT22;27789;50.840;4.386;2023-11-22T12:24:33;14.70;99.90
39677;DHT22;27789;50.840;4.386;2023-11-22T12:26:59;14.20;99.90
39677;DHT22;27789;50.840;4.386;2023-11-22T12:29:25;13.70;99.90
39677;DHT22;27789;50.840;4.386;2023-11-22T12:31:51;13.30;99.90
39677;DHT22;27789;50.840;4.386;2023-11-22T12:34:18;13.00;99.90
39677;DHT22;27789;50.840;4.386;2023-11-22T12:36:45;12.90;99.90
39677;DHT22;27789;50.840;4.386;2023-11-22T12:39:10;12.90;99.90
39677;DHT22;27789;50.840;4.386;2023-11-22T12:41:44;12.90;99.90
39677;DHT22;27789;50.840;4.386;2023-11-22T12:44:10;12.80;99.90
39677;DHT22;27789;50.840;4.386;2023-11-22T12:46:49;12.60;99.90
39677;DHT22;27789;50.840;4.386;2023-11-22T12:49:15;12.50;99.90
39677;DHT22;27789;50.840;4.386;2023-11-22T12:51:51;12.30;99.90
39677;DHT22;27789;50.840;4.386;2023-11-22T12:54:17;12.10;99.90
39677;DHT22;27789;50.840;4.386;2023-11-22T12:56:45;12.30;99.90
39677;DHT22;27789;50.840;4.386;2023-11-22T12:59:10;12.80;99.90
39677;DHT22;27789;50.840;4.386;2023-11-22T13:01:36;13.40;99.90
39677;DHT22;27789;50.840;4.386;2023-11-22T13:04:01;13.50;99.90
39677;DHT22;27789;50.840;4.386;2023-11-22T13:06:27;13.40;99.90
39677;DHT22;27789;50.840;4.386;2023-11-22T13:08:52;13.10;99.90
39677;DHT22;27789;50.840;4.386;2023-11-22T13:11:18;12.80;99.90
39677;DHT22;27789;50.840;4.386;2023-11-22T13:13:44;12.70;99.90
39677;DHT22;27789;50.840;4.386;2023-11-22T13:16:12;12.40;99.90
39677;DHT22;27789;50.840;4.386;2023-11-22T13:18:37;12.20;99.90
39677;DHT22;27789;50.840;4.386;2023-11-22T13:21:03;12.00;99.90
39677;DHT22;27789;50.840;4.386;2023-11-22T13:23:29;11.80;99.90
39677;DHT22;27789;50.840;4.386;2023-11-22T13:25:54;11.50;99.90
39677;DHT22;27789;50.840;4.386;2023-11-22T13:28:20;11.40;99.90
39677;DHT22;27789;50.840;4.386;2023-11-22T13:30:45;11.30;99.90
39677;DHT22;27789;50.840;4.386;2023-11-22T13:33:11;11.20;99.90
39677;DHT22;27789;50.840;4.386;2023-11-22T13:35:36;11.10;99.90
39677;DHT22;27789;50.840;4.386;2023-11-22T13:38:03;10.70;99.90
39677;DHT22;27789;50.840;4.386;2023-11-22T13:40:35;10.70;99.90
39677;DHT22;27789;50.840;4.386;2023-11-22T13:43:01;10.80;99.90
39677;DHT22;27789;50.840;4.386;2023-11-22T13:45:29;10.80;99.90
39677;DHT22;27789;50.840;4.386;2023-11-22T13:47:54;10.90;99.90
39677;DHT22;27789;50.840;4.386;2023-11-22T13:50:26;11.10;99.90
39677;DHT22;27789;50.840;4.386;2023-11-22T13:52:55;11.20;99.90
39677;DHT22;27789;50.840;4.386;2023-11-22T13:55:20;11.20;99.90
39677;DHT22;27789;50.840;4.386;2023-11-22T13:57:50;11.00;99.90
39677;DHT22;27789;50.840;4.386;2023-11-22T14:00:16;10.70;99.90
39677;DHT22;27789;50.840;4.386;2023-11-22T14:02:51;10.60;99.90
39677;DHT22;27789;50.840;4.386;2023-11-22T14:05:18;10.60;99.90
39677;DHT22;27789;50.840;4.386;2023-11-22T14:07:43;10.30;99.90
39677;DHT22;27789;50.840;4.386;2023-11-22T14:10:10;10.10;99.90
39677;DHT22;27789;50.840;4.386;2023-11-22T14:12:36;9.90;99.90
39677;DHT22;27789;50.840;4.386;2023-11-22T14:15:01;10.00;99.90
39677;DHT22;27789;50.840;4.386;2023-11-22T14:17:29;9.90;99.90
39677;DHT22;27789;50.840;4.386;2023-11-22T14:19:55;9.90;99.90
39677;DHT22;27789;50.840;4.386;2023-11-22T14:22:21;9.80;99.90
39677;DHT22;27789;50.840;4.386;2023-11-22T14:24:47;9.80;99.90
39677;DHT22;27789;50.840;4.386;2023-11-22T14:27:14;9.80;99.90
39677;DHT22;27789;50.840;4.386;2023-11-22T14:29:39;9.80;99.90
39677;DHT22;27789;50.840;4.386;2023-11-22T14:32:06;9.80;99.90
39677;DHT22;27789;50.840;4.386;2023-11-22T14:34:32;9.90;99.90
39677;DHT22;27789;50.840;4.386;2023-11-22T14:36:58;10.10;99.90
39677;DHT22;27789;50.840;4.386;2023-11-22T14:39:23;9.90;99.90
39677;DHT22;27789;50.840;4.386;2023-11-22T14:41:49;10.00;99.90
39677;DHT22;27789;50.840;4.386;2023-11-22T14:44:16;10.00;99.90
39677;DHT22;27789;50.840;4.386;2023-11-22T14:46:41;9.90;99.90
39677;DHT22;27789;50.840;4.386;2023-11-22T14:49:07;9.90;99.90
39677;DHT22;27789;50.840;4.386;2023-11-22T14:51:33;9.80;99.90
39677;DHT22;27789;50.840;4.386;2023-11-22T14:53:59;9.70;99.90
39677;DHT22;27789;50.840;4.386;2023-11-22T14:56:24;9.70;99.90
39677;DHT22;27789;50.840;4.386;2023-11-22T14:58:50;9.60;99.90
39677;DHT22;27789;50.840;4.386;2023-11-22T15:01:19;9.80;99.90
39677;DHT22;27789;50.840;4.386;2023-11-22T15:03:46;9.70;99.90
39677;DHT22;27789;50.840;4.386;2023-11-22T15:06:12;9.50;99.90
39677;DHT22;27789;50.840;4.386;2023-11-22T15:08:40;9.50;99.90
39677;DHT22;27789;50.840;4.386;2023-11-22T15:11:05;9.50;99.90
39677;DHT22;27789;50.840;4.386;2023-11-22T15:13:33;9.40;99.90
39677;DHT22;27789;50.840;4.386;2023-11-22T15:15:59;9.40;99.90
39677;DHT22;27789;50.840;4.386;2023-11-22T15:18:25;9.50;99.90
39677;DHT22;27789;50.840;4.386;2023-11-22T15:20:52;9.40;99.90
39677;DHT22;27789;50.840;4.386;2023-11-22T15:23:17;9.40;99.90
39677;DHT22;27789;50.840;4.386;2023-11-22T15:25:44;9.50;99.90
39677;DHT22;27789;50.840;4.386;2023-11-22T15:28:10;9.40;99.90
39677;DHT22;27789;50.840;4.386;2023-11-22T15:30:36;9.40;99.90
39677;DHT22;27789;50.840;4.386;2023-11-22T15:33:02;9.50;99.90
39677;DHT22;27789;50.840;4.386;2023-11-22T15:35:30;9.40;99.90
39677;DHT22;27789;50.840;4.386;2023-11-22T15:37:55;9.40;99.90
39677;DHT22;27789;50.840;4.386;2023-11-22T15:40:21;9.50;99.90